sensor_id;sensor_type;location;lat;lon;timestamp;P1;durP1;ratioP1;P2;durP2;ratioP2
21999;SDS011;11164;48.818;2.322;2023-11-18T00:02:18;13.60;;;8.85;;
21999;SDS011;11164;48.818;2.322;2023-11-18T00:04:43;14.32;;;8.60;;
21999;SDS011;11164;48.818;2.322;2023-11-18T00:07:08;19.90;;;8.82;;
21999;SDS011;11164;48.818;2.322;2023-11-18T00:09:34;17.02;;;8.63;;
21999;SDS011;11164;48.818;2.322;2023-11-18T00:11:59;21.05;;;9.07;;
21999;SDS011;11164;48.818;2.322;2023-11-18T00:14:26;14.10;;;8.45;;
21999;SDS011;11164;48.818;2.322;2023-11-18T00:16:51;17.63;;;8.48;;
21999;SDS011;11164;48.818;2.322;2023-11-18T00:19:17;18.55;;;9.10;;
21999;SDS011;11164;48.818;2.322;2023-11-18T00:21:42;16.70;;;9.10;;
21999;SDS011;11164;48.818;2.322;2023-11-18T00:24:07;21.58;;;8.75;;
21999;SDS011;11164;48.818;2.322;2023-11-18T00:26:33;19.48;;;9.38;;
21999;SDS011;11164;48.818;2.322;2023-11-18T00:28:59;15.13;;;8.93;;
21999;SDS011;11164;48.818;2.322;2023-11-18T00:31:25;16.20;;;9.23;;
21999;SDS011;11164;48.818;2.322;2023-11-18T00:33:50;17.58;;;9.05;;
21999;SDS011;11164;48.818;2.322;2023-11-18T00:36:16;16.60;;;9.55;;
21999;SDS011;11164;48.818;2.322;2023-11-18T00:38:41;18.73;;;9.88;;
21999;SDS011;11164;48.818;2.322;2023-11-18T00:41:06;19.33;;;10.27;;
21999;SDS011;11164;48.818;2.322;2023-11-18T00:43:32;19.17;;;9.63;;
21999;SDS011;11164;48.818;2.322;2023-11-18T00:45:57;19.63;;;9.88;;
21999;SDS011;11164;48.818;2.322;2023-11-18T00:48:24;20.63;;;10.13;;
21999;SDS011;11164;48.818;2.322;2023-11-18T00:50:49;17.60;;;9.98;;
21999;SDS011;11164;48.818;2.322;2023-11-18T00:53:15;21.27;;;9.73;;
21999;SDS011;11164;48.818;2.322;2023-11-18T00:55:40;17.90;;;10.00;;
21999;SDS011;11164;48.818;2.322;2023-11-18T00:58:06;14.77;;;9.52;;
21999;SDS011;11164;48.818;2.322;2023-11-18T01:00:31;15.00;;;9.05;;
21999;SDS011;11164;48.818;2.322;2023-11-18T01:02:56;18.13;;;9.20;;
21999;SDS011;11164;48.818;2.322;2023-11-18T01:05:22;18.50;;;10.20;;
21999;SDS011;11164;48.818;2.322;2023-11-18T01:07:47;19.10;;;9.85;;
21999;SDS011;11164;48.818;2.322;2023-11-18T01:10:13;15.65;;;8.75;;
21999;SDS011;11164;48.818;2.322;2023-11-18T01:12:38;17.10;;;8.95;;
21999;SDS011;11164;48.818;2.322;2023-11-18T01:15:04;14.48;;;8.93;;
21999;SDS011;11164;48.818;2.322;2023-11-18T01:17:30;17.35;;;8.50;;
21999;SDS011;11164;48.818;2.322;2023-11-18T01:19:56;18.13;;;9.15;;
21999;SDS011;11164;48.818;2.322;2023-11-18T01:22:22;15.10;;;8.80;;
21999;SDS011;11164;48.818;2.322;2023-11-18T01:24:47;17.02;;;8.70;;
21999;SDS011;11164;48.818;2.322;2023-11-18T01:27:12;16.27;;;8.95;;
21999;SDS011;11164;48.818;2.322;2023-11-18T01:29:38;19.42;;;9.43;;
21999;SDS011;11164;48.818;2.322;2023-11-18T01:32:07;20.60;;;8.90;;
21999;SDS011;11164;48.818;2.322;2023-11-18T01:34:36;15.10;;;8.73;;
21999;SDS011;11164;48.818;2.322;2023-11-18T01:37:04;15.60;;;8.73;;
21999;SDS011;11164;48.818;2.322;2023-11-18T01:39:32;20.65;;;8.45;;
21999;SDS011;11164;48.818;2.322;2023-11-18T01:42:01;17.00;;;7.55;;
21999;SDS011;11164;48.818;2.322;2023-11-18T01:44:27;14.70;;;7.65;;
21999;SDS011;11164;48.818;2.322;2023-11-18T01:46:54;16.58;;;7.82;;
21999;SDS011;11164;48.818;2.322;2023-11-18T01:49:21;15.52;;;7.82;;
21999;SDS011;11164;48.818;2.322;2023-11-18T01:51:47;13.95;;;7.95;;
21999;SDS011;11164;48.818;2.322;2023-11-18T01:54:16;15.23;;;7.68;;
21999;SDS011;11164;48.818;2.322;2023-11-18T01:56:52;17.70;;;7.88;;
21999;SDS011;11164;48.818;2.322;2023-11-18T02:01:47;14.02;;;7.47;;
21999;SDS011;11164;48.818;2.322;2023-11-18T02:04:15;17.65;;;8.73;;
21999;SDS011;11164;48.818;2.322;2023-11-18T02:06:40;16.00;;;8.30;;
21999;SDS011;11164;48.818;2.322;2023-11-18T02:09:07;16.30;;;8.07;;
21999;SDS011;11164;48.818;2.322;2023-11-18T02:11:36;17.90;;;8.52;;
21999;SDS011;11164;48.818;2.322;2023-11-18T02:14:06;15.05;;;7.97;;
21999;SDS011;11164;48.818;2.322;2023-11-18T02:16:38;15.52;;;8.57;;
21999;SDS011;11164;48.818;2.322;2023-11-18T02:19:07;15.20;;;8.05;;
21999;SDS011;11164;48.818;2.322;2023-11-18T02:21:41;15.15;;;7.82;;
21999;SDS011;11164;48.818;2.322;2023-11-18T02:24:07;15.90;;;7.55;;
21999;SDS011;11164;48.818;2.322;2023-11-18T02:26:34;15.95;;;7.50;;
21999;SDS011;11164;48.818;2.322;2023-11-18T02:29:00;14.80;;;7.72;;
21999;SDS011;11164;48.818;2.322;2023-11-18T02:31:27;15.25;;;7.15;;
21999;SDS011;11164;48.818;2.322;2023-11-18T02:34:03;14.52;;;7.15;;
21999;SDS011;11164;48.818;2.322;2023-11-18T02:36:39;16.67;;;7.32;;
21999;SDS011;11164;48.818;2.322;2023-11-18T02:39:08;12.52;;;6.88;;
21999;SDS011;11164;48.818;2.322;2023-11-18T02:41:42;14.85;;;7.88;;
21999;SDS011;11164;48.818;2.322;2023-11-18T02:44:11;15.73;;;7.15;;
21999;SDS011;11164;48.818;2.322;2023-11-18T02:46:42;13.20;;;7.18;;
21999;SDS011;11164;48.818;2.322;2023-11-18T02:49:08;12.63;;;7.18;;
21999;SDS011;11164;48.818;2.322;2023-11-18T02:51:34;17.13;;;7.25;;
21999;SDS011;11164;48.818;2.322;2023-11-18T02:54:04;11.80;;;6.80;;
21999;SDS011;11164;48.818;2.322;2023-11-18T02:56:35;16.08;;;7.60;;
21999;SDS011;11164;48.818;2.322;2023-11-18T02:59:03;17.77;;;7.28;;
21999;SDS011;11164;48.818;2.322;2023-11-18T03:01:34;13.50;;;7.70;;
21999;SDS011;11164;48.818;2.322;2023-11-18T03:04:00;15.65;;;7.32;;
21999;SDS011;11164;48.818;2.322;2023-11-18T03:06:27;13.60;;;7.68;;
21999;SDS011;11164;48.818;2.322;2023-11-18T03:08:52;20.67;;;8.10;;
21999;SDS011;11164;48.818;2.322;2023-11-18T03:11:19;14.43;;;7.43;;
21999;SDS011;11164;48.818;2.322;2023-11-18T03:13:45;14.15;;;7.47;;
21999;SDS011;11164;48.818;2.322;2023-11-18T03:16:13;18.80;;;7.75;;
21999;SDS011;11164;48.818;2.322;2023-11-18T03:18:39;21.48;;;9.90;;
21999;SDS011;11164;48.818;2.322;2023-11-18T03:21:06;14.63;;;7.30;;
21999;SDS011;11164;48.818;2.322;2023-11-18T03:23:37;15.38;;;6.88;;
21999;SDS011;11164;48.818;2.322;2023-11-18T03:26:02;12.10;;;6.47;;
21999;SDS011;11164;48.818;2.322;2023-11-18T03:28:28;16.17;;;7.35;;
21999;SDS011;11164;48.818;2.322;2023-11-18T03:30:53;17.75;;;6.53;;
21999;SDS011;11164;48.818;2.322;2023-11-18T03:33:19;16.17;;;6.30;;
21999;SDS011;11164;48.818;2.322;2023-11-18T03:35:44;13.15;;;6.45;;
21999;SDS011;11164;48.818;2.322;2023-11-18T03:38:09;12.50;;;6.28;;
21999;SDS011;11164;48.818;2.322;2023-11-18T03:40:35;13.93;;;6.43;;
21999;SDS011;11164;48.818;2.322;2023-11-18T03:43:00;17.05;;;6.28;;
21999;SDS011;11164;48.818;2.322;2023-11-18T03:45:25;12.63;;;5.43;;
21999;SDS011;11164;48.818;2.322;2023-11-18T03:47:51;17.35;;;5.38;;
21999;SDS011;11164;48.818;2.322;2023-11-18T03:50:16;12.15;;;5.20;;
21999;SDS011;11164;48.818;2.322;2023-11-18T03:52:42;9.25;;;4.93;;
21999;SDS011;11164;48.818;2.322;2023-11-18T03:55:07;12.52;;;5.18;;
21999;SDS011;11164;48.818;2.322;2023-11-18T03:57:33;12.63;;;5.65;;
21999;SDS011;11164;48.818;2.322;2023-11-18T03:59:59;15.20;;;5.45;;
21999;SDS011;11164;48.818;2.322;2023-11-18T04:02:24;13.50;;;5.10;;
21999;SDS011;11164;48.818;2.322;2023-11-18T04:04:50;8.95;;;4.82;;
21999;SDS011;11164;48.818;2.322;2023-11-18T04:07:15;14.82;;;4.97;;
21999;SDS011;11164;48.818;2.322;2023-11-18T04:09:41;11.00;;;5.10;;
21999;SDS011;11164;48.818;2.322;2023-11-18T04:12:08;12.52;;;5.07;;
21999;SDS011;11164;48.818;2.322;2023-11-18T04:14:35;13.20;;;4.63;;
21999;SDS011;11164;48.818;2.322;2023-11-18T04:17:01;10.50;;;4.35;;
21999;SDS011;11164;48.818;2.322;2023-11-18T04:19:26;14.35;;;5.18;;
21999;SDS011;11164;48.818;2.322;2023-11-18T04:21:52;11.20;;;5.30;;
21999;SDS011;11164;48.818;2.322;2023-11-18T04:24:17;12.75;;;5.25;;
21999;SDS011;11164;48.818;2.322;2023-11-18T04:26:43;14.95;;;5.10;;
21999;SDS011;11164;48.818;2.322;2023-11-18T04:29:08;12.48;;;5.50;;
21999;SDS011;11164;48.818;2.322;2023-11-18T04:31:34;10.55;;;4.85;;
21999;SDS011;11164;48.818;2.322;2023-11-18T04:33:59;11.10;;;5.10;;
21999;SDS011;11164;48.818;2.322;2023-11-18T04:36:25;9.85;;;4.70;;
21999;SDS011;11164;48.818;2.322;2023-11-18T04:38:51;9.65;;;4.70;;
21999;SDS011;11164;48.818;2.322;2023-11-18T04:41:17;11.65;;;4.78;;
21999;SDS011;11164;48.818;2.322;2023-11-18T04:43:42;10.70;;;4.88;;
21999;SDS011;11164;48.818;2.322;2023-11-18T04:46:07;10.63;;;4.85;;
21999;SDS011;11164;48.818;2.322;2023-11-18T04:48:33;12.82;;;4.82;;
21999;SDS011;11164;48.818;2.322;2023-11-18T04:50:59;15.18;;;4.75;;
21999;SDS011;11164;48.818;2.322;2023-11-18T04:53:25;13.93;;;4.85;;
21999;SDS011;11164;48.818;2.322;2023-11-18T04:55:50;10.68;;;4.57;;
21999;SDS011;11164;48.818;2.322;2023-11-18T04:58:16;10.52;;;4.32;;
21999;SDS011;11164;48.818;2.322;2023-11-18T05:00:42;12.55;;;4.50;;
21999;SDS011;11164;48.818;2.322;2023-11-18T05:03:08;10.32;;;4.15;;
21999;SDS011;11164;48.818;2.322;2023-11-18T05:05:40;9.85;;;4.20;;
21999;SDS011;11164;48.818;2.322;2023-11-18T05:08:06;11.85;;;4.60;;
21999;SDS011;11164;48.818;2.322;2023-11-18T05:10:32;12.25;;;4.57;;
21999;SDS011;11164;48.818;2.322;2023-11-18T05:12:58;10.95;;;4.68;;
21999;SDS011;11164;48.818;2.322;2023-11-18T05:15:24;9.88;;;4.70;;
21999;SDS011;11164;48.818;2.322;2023-11-18T05:17:54;11.43;;;4.57;;
21999;SDS011;11164;48.818;2.322;2023-11-18T05:20:20;12.45;;;4.65;;
21999;SDS011;11164;48.818;2.322;2023-11-18T05:22:46;8.10;;;4.40;;
21999;SDS011;11164;48.818;2.322;2023-11-18T05:25:12;13.57;;;4.45;;
21999;SDS011;11164;48.818;2.322;2023-11-18T05:27:38;10.68;;;3.97;;
21999;SDS011;11164;48.818;2.322;2023-11-18T05:30:10;9.02;;;4.30;;
21999;SDS011;11164;48.818;2.322;2023-11-18T05:32:36;8.60;;;4.28;;
21999;SDS011;11164;48.818;2.322;2023-11-18T05:35:01;9.98;;;4.80;;
21999;SDS011;11164;48.818;2.322;2023-11-18T05:37:29;8.05;;;3.70;;
21999;SDS011;11164;48.818;2.322;2023-11-18T05:40:00;10.85;;;3.95;;
21999;SDS011;11164;48.818;2.322;2023-11-18T05:42:31;9.77;;;4.13;;
21999;SDS011;11164;48.818;2.322;2023-11-18T05:44:56;10.25;;;4.03;;
21999;SDS011;11164;48.818;2.322;2023-11-18T05:47:27;15.15;;;4.30;;
21999;SDS011;11164;48.818;2.322;2023-11-18T05:49:53;9.77;;;3.53;;
21999;SDS011;11164;48.818;2.322;2023-11-18T05:52:19;8.48;;;3.60;;
21999;SDS011;11164;48.818;2.322;2023-11-18T05:54:45;9.80;;;3.42;;
21999;SDS011;11164;48.818;2.322;2023-11-18T05:57:12;15.75;;;4.40;;
21999;SDS011;11164;48.818;2.322;2023-11-18T05:59:38;9.65;;;3.50;;
21999;SDS011;11164;48.818;2.322;2023-11-18T06:02:04;8.88;;;3.70;;
21999;SDS011;11164;48.818;2.322;2023-11-18T06:04:30;9.20;;;3.35;;
21999;SDS011;11164;48.818;2.322;2023-11-18T06:06:56;5.78;;;3.45;;
21999;SDS011;11164;48.818;2.322;2023-11-18T06:09:21;10.10;;;3.50;;
21999;SDS011;11164;48.818;2.322;2023-11-18T06:11:50;9.57;;;3.40;;
21999;SDS011;11164;48.818;2.322;2023-11-18T06:14:16;7.43;;;3.03;;
21999;SDS011;11164;48.818;2.322;2023-11-18T06:16:42;9.20;;;3.13;;
21999;SDS011;11164;48.818;2.322;2023-11-18T06:19:07;12.75;;;3.50;;
21999;SDS011;11164;48.818;2.322;2023-11-18T06:21:33;7.20;;;3.25;;
21999;SDS011;11164;48.818;2.322;2023-11-18T06:23:59;8.38;;;3.33;;
21999;SDS011;11164;48.818;2.322;2023-11-18T06:26:25;9.70;;;3.42;;
21999;SDS011;11164;48.818;2.322;2023-11-18T06:28:52;9.90;;;3.20;;
21999;SDS011;11164;48.818;2.322;2023-11-18T06:31:19;8.80;;;3.20;;
21999;SDS011;11164;48.818;2.322;2023-11-18T06:33:49;8.95;;;3.15;;
21999;SDS011;11164;48.818;2.322;2023-11-18T06:38:40;7.50;;;2.78;;
21999;SDS011;11164;48.818;2.322;2023-11-18T06:41:06;8.07;;;3.17;;
21999;SDS011;11164;48.818;2.322;2023-11-18T06:43:42;8.55;;;3.30;;
21999;SDS011;11164;48.818;2.322;2023-11-18T06:46:20;7.07;;;3.03;;
21999;SDS011;11164;48.818;2.322;2023-11-18T06:48:50;7.60;;;3.10;;
21999;SDS011;11164;48.818;2.322;2023-11-18T06:51:19;7.88;;;3.03;;
21999;SDS011;11164;48.818;2.322;2023-11-18T06:53:49;8.23;;;3.22;;
21999;SDS011;11164;48.818;2.322;2023-11-18T06:56:22;6.95;;;2.63;;
21999;SDS011;11164;48.818;2.322;2023-11-18T06:58:47;6.57;;;2.60;;
21999;SDS011;11164;48.818;2.322;2023-11-18T07:01:13;9.73;;;3.17;;
21999;SDS011;11164;48.818;2.322;2023-11-18T07:03:40;6.85;;;2.92;;
21999;SDS011;11164;48.818;2.322;2023-11-18T07:06:09;8.70;;;3.17;;
21999;SDS011;11164;48.818;2.322;2023-11-18T07:08:37;8.48;;;3.15;;
21999;SDS011;11164;48.818;2.322;2023-11-18T07:11:04;6.05;;;2.80;;
21999;SDS011;11164;48.818;2.322;2023-11-18T07:13:31;8.88;;;3.05;;
21999;SDS011;11164;48.818;2.322;2023-11-18T07:15:58;7.00;;;3.20;;
21999;SDS011;11164;48.818;2.322;2023-11-18T07:18:24;7.75;;;2.80;;
21999;SDS011;11164;48.818;2.322;2023-11-18T07:20:49;8.18;;;2.95;;
21999;SDS011;11164;48.818;2.322;2023-11-18T07:23:17;10.23;;;3.38;;
21999;SDS011;11164;48.818;2.322;2023-11-18T07:25:44;6.28;;;3.28;;
21999;SDS011;11164;48.818;2.322;2023-11-18T07:28:09;8.65;;;2.88;;
21999;SDS011;11164;48.818;2.322;2023-11-18T07:30:35;7.28;;;3.05;;
21999;SDS011;11164;48.818;2.322;2023-11-18T07:33:02;8.43;;;3.17;;
21999;SDS011;11164;48.818;2.322;2023-11-18T07:35:27;5.65;;;2.95;;
21999;SDS011;11164;48.818;2.322;2023-11-18T07:37:53;9.00;;;4.50;;
21999;SDS011;11164;48.818;2.322;2023-11-18T07:40:18;6.65;;;3.03;;
21999;SDS011;11164;48.818;2.322;2023-11-18T07:42:53;8.73;;;3.25;;
21999;SDS011;11164;48.818;2.322;2023-11-18T07:45:21;5.63;;;2.72;;
21999;SDS011;11164;48.818;2.322;2023-11-18T07:47:48;5.90;;;2.33;;
21999;SDS011;11164;48.818;2.322;2023-11-18T07:50:16;4.65;;;2.35;;
21999;SDS011;11164;48.818;2.322;2023-11-18T07:52:42;5.97;;;2.80;;
21999;SDS011;11164;48.818;2.322;2023-11-18T07:55:07;6.05;;;2.47;;
21999;SDS011;11164;48.818;2.322;2023-11-18T07:57:38;6.95;;;2.75;;
21999;SDS011;11164;48.818;2.322;2023-11-18T08:00:03;7.70;;;2.75;;
21999;SDS011;11164;48.818;2.322;2023-11-18T08:02:34;6.38;;;2.88;;
21999;SDS011;11164;48.818;2.322;2023-11-18T08:05:01;6.82;;;3.03;;
21999;SDS011;11164;48.818;2.322;2023-11-18T08:07:28;5.22;;;2.90;;
21999;SDS011;11164;48.818;2.322;2023-11-18T08:09:54;7.25;;;2.60;;
21999;SDS011;11164;48.818;2.322;2023-11-18T08:12:19;4.88;;;2.90;;
21999;SDS011;11164;48.818;2.322;2023-11-18T08:14:45;4.90;;;2.72;;
21999;SDS011;11164;48.818;2.322;2023-11-18T08:17:12;5.50;;;2.60;;
21999;SDS011;11164;48.818;2.322;2023-11-18T08:19:38;5.22;;;2.60;;
21999;SDS011;11164;48.818;2.322;2023-11-18T08:22:03;8.02;;;3.55;;
21999;SDS011;11164;48.818;2.322;2023-11-18T08:24:29;4.63;;;2.40;;
21999;SDS011;11164;48.818;2.322;2023-11-18T08:26:55;5.28;;;2.17;;
21999;SDS011;11164;48.818;2.322;2023-11-18T08:29:20;13.48;;;5.38;;
21999;SDS011;11164;48.818;2.322;2023-11-18T08:31:46;10.30;;;4.20;;
21999;SDS011;11164;48.818;2.322;2023-11-18T08:34:11;8.95;;;4.28;;
21999;SDS011;11164;48.818;2.322;2023-11-18T08:36:37;7.50;;;2.72;;
21999;SDS011;11164;48.818;2.322;2023-11-18T08:39:02;14.05;;;6.10;;
21999;SDS011;11164;48.818;2.322;2023-11-18T08:41:28;10.95;;;4.72;;
21999;SDS011;11164;48.818;2.322;2023-11-18T08:43:56;9.23;;;4.38;;
21999;SDS011;11164;48.818;2.322;2023-11-18T08:46:22;9.52;;;4.20;;
21999;SDS011;11164;48.818;2.322;2023-11-18T08:48:47;9.45;;;4.30;;
21999;SDS011;11164;48.818;2.322;2023-11-18T08:51:13;12.43;;;5.47;;
21999;SDS011;11164;48.818;2.322;2023-11-18T08:53:38;7.07;;;3.60;;
21999;SDS011;11164;48.818;2.322;2023-11-18T08:56:08;6.38;;;3.58;;
21999;SDS011;11164;48.818;2.322;2023-11-18T08:58:39;6.32;;;3.17;;
21999;SDS011;11164;48.818;2.322;2023-11-18T09:01:09;6.50;;;3.40;;
21999;SDS011;11164;48.818;2.322;2023-11-18T09:03:39;6.70;;;3.17;;
21999;SDS011;11164;48.818;2.322;2023-11-18T09:06:09;5.80;;;2.95;;
21999;SDS011;11164;48.818;2.322;2023-11-18T09:08:50;5.72;;;2.80;;
21999;SDS011;11164;48.818;2.322;2023-11-18T09:11:20;6.93;;;3.15;;
21999;SDS011;11164;48.818;2.322;2023-11-18T09:13:47;7.32;;;2.95;;
21999;SDS011;11164;48.818;2.322;2023-11-18T09:16:25;6.53;;;3.35;;
21999;SDS011;11164;48.818;2.322;2023-11-18T09:18:54;5.63;;;2.88;;
21999;SDS011;11164;48.818;2.322;2023-11-18T09:21:21;6.80;;;3.03;;
21999;SDS011;11164;48.818;2.322;2023-11-18T09:23:50;6.32;;;2.97;;
21999;SDS011;11164;48.818;2.322;2023-11-18T09:26:16;6.05;;;3.38;;
21999;SDS011;11164;48.818;2.322;2023-11-18T09:28:42;6.28;;;3.00;;
21999;SDS011;11164;48.818;2.322;2023-11-18T09:31:09;5.70;;;2.88;;
21999;SDS011;11164;48.818;2.322;2023-11-18T09:33:37;7.72;;;3.80;;
21999;SDS011;11164;48.818;2.322;2023-11-18T09:36:06;6.20;;;3.35;;
21999;SDS011;11164;48.818;2.322;2023-11-18T09:38:35;5.35;;;2.88;;
21999;SDS011;11164;48.818;2.322;2023-11-18T09:41:02;6.10;;;3.00;;
21999;SDS011;11164;48.818;2.322;2023-11-18T09:43:32;5.97;;;2.70;;
21999;SDS011;11164;48.818;2.322;2023-11-18T09:46:07;6.45;;;3.15;;
21999;SDS011;11164;48.818;2.322;2023-11-18T09:48:47;5.13;;;3.10;;
21999;SDS011;11164;48.818;2.322;2023-11-18T09:51:25;5.47;;;2.90;;
21999;SDS011;11164;48.818;2.322;2023-11-18T09:53:59;6.13;;;3.30;;
21999;SDS011;11164;48.818;2.322;2023-11-18T09:56:30;9.40;;;3.00;;
21999;SDS011;11164;48.818;2.322;2023-11-18T09:59:34;5.88;;;3.03;;
21999;SDS011;11164;48.818;2.322;2023-11-18T10:02:09;7.30;;;2.90;;
21999;SDS011;11164;48.818;2.322;2023-11-18T10:04:36;6.60;;;2.83;;
21999;SDS011;11164;48.818;2.322;2023-11-18T10:07:04;6.10;;;2.85;;
21999;SDS011;11164;48.818;2.322;2023-11-18T10:09:32;5.78;;;3.35;;
21999;SDS011;11164;48.818;2.322;2023-11-18T10:12:04;6.53;;;3.17;;
21999;SDS011;11164;48.818;2.322;2023-11-18T10:14:32;8.45;;;2.92;;
21999;SDS011;11164;48.818;2.322;2023-11-18T10:17:04;5.35;;;3.05;;
21999;SDS011;11164;48.818;2.322;2023-11-18T10:22:21;5.70;;;3.17;;
21999;SDS011;11164;48.818;2.322;2023-11-18T10:24:48;6.28;;;2.85;;
21999;SDS011;11164;48.818;2.322;2023-11-18T10:27:14;5.30;;;2.40;;
21999;SDS011;11164;48.818;2.322;2023-11-18T10:29:40;8.02;;;2.80;;
21999;SDS011;11164;48.818;2.322;2023-11-18T10:32:06;5.47;;;2.92;;
21999;SDS011;11164;48.818;2.322;2023-11-18T10:34:44;6.20;;;3.20;;
21999;SDS011;11164;48.818;2.322;2023-11-18T10:37:10;6.05;;;2.75;;
21999;SDS011;11164;48.818;2.322;2023-11-18T10:39:36;6.25;;;3.17;;
21999;SDS011;11164;48.818;2.322;2023-11-18T10:42:02;5.70;;;2.80;;
21999;SDS011;11164;48.818;2.322;2023-11-18T10:44:28;7.00;;;2.67;;
21999;SDS011;11164;48.818;2.322;2023-11-18T10:46:54;4.53;;;2.22;;
21999;SDS011;11164;48.818;2.322;2023-11-18T10:49:23;7.65;;;2.70;;
21999;SDS011;11164;48.818;2.322;2023-11-18T10:51:52;6.30;;;2.90;;
21999;SDS011;11164;48.818;2.322;2023-11-18T10:54:18;6.07;;;2.65;;
21999;SDS011;11164;48.818;2.322;2023-11-18T10:56:48;4.80;;;2.63;;
21999;SDS011;11164;48.818;2.322;2023-11-18T10:59:14;8.73;;;3.00;;
21999;SDS011;11164;48.818;2.322;2023-11-18T11:01:41;5.90;;;2.60;;
21999;SDS011;11164;48.818;2.322;2023-11-18T11:04:10;7.63;;;3.35;;
21999;SDS011;11164;48.818;2.322;2023-11-18T11:06:41;6.57;;;2.80;;
21999;SDS011;11164;48.818;2.322;2023-11-18T11:09:07;7.78;;;2.80;;
21999;SDS011;11164;48.818;2.322;2023-11-18T11:11:59;6.45;;;2.35;;
21999;SDS011;11164;48.818;2.322;2023-11-18T11:14:34;7.30;;;2.53;;
21999;SDS011;11164;48.818;2.322;2023-11-18T11:17:05;6.40;;;2.65;;
21999;SDS011;11164;48.818;2.322;2023-11-18T11:19:55;6.25;;;2.85;;
21999;SDS011;11164;48.818;2.322;2023-11-18T11:25:36;5.75;;;3.03;;
21999;SDS011;11164;48.818;2.322;2023-11-18T11:28:19;8.63;;;3.35;;
21999;SDS011;11164;48.818;2.322;2023-11-18T11:30:58;6.72;;;2.80;;
21999;SDS011;11164;48.818;2.322;2023-11-18T11:36:16;4.93;;;3.00;;
21999;SDS011;11164;48.818;2.322;2023-11-18T11:38:52;7.80;;;3.08;;
21999;SDS011;11164;48.818;2.322;2023-11-18T11:41:23;6.43;;;2.75;;
21999;SDS011;11164;48.818;2.322;2023-11-18T11:43:52;5.28;;;2.90;;
21999;SDS011;11164;48.818;2.322;2023-11-18T11:46:22;6.78;;;2.80;;
21999;SDS011;11164;48.818;2.322;2023-11-18T11:48:52;6.80;;;3.08;;
21999;SDS011;11164;48.818;2.322;2023-11-18T11:54:11;6.15;;;2.80;;
21999;SDS011;11164;48.818;2.322;2023-11-18T11:56:44;7.32;;;2.90;;
21999;SDS011;11164;48.818;2.322;2023-11-18T12:02:09;10.18;;;3.00;;
21999;SDS011;11164;48.818;2.322;2023-11-18T12:04:43;4.75;;;2.35;;
21999;SDS011;11164;48.818;2.322;2023-11-18T12:07:09;5.80;;;2.92;;
21999;SDS011;11164;48.818;2.322;2023-11-18T12:09:38;8.27;;;2.90;;
21999;SDS011;11164;48.818;2.322;2023-11-18T12:12:06;6.43;;;2.65;;
21999;SDS011;11164;48.818;2.322;2023-11-18T12:14:51;7.72;;;2.80;;
21999;SDS011;11164;48.818;2.322;2023-11-18T12:17:17;5.22;;;2.80;;
21999;SDS011;11164;48.818;2.322;2023-11-18T12:19:53;5.75;;;3.00;;
21999;SDS011;11164;48.818;2.322;2023-11-18T12:22:24;5.90;;;2.75;;
21999;SDS011;11164;48.818;2.322;2023-11-18T12:27:41;5.97;;;2.83;;
21999;SDS011;11164;48.818;2.322;2023-11-18T12:35:29;4.78;;;2.78;;
21999;SDS011;11164;48.818;2.322;2023-11-18T12:43:16;7.55;;;2.75;;
21999;SDS011;11164;48.818;2.322;2023-11-18T12:48:49;6.22;;;2.53;;
21999;SDS011;11164;48.818;2.322;2023-11-18T12:51:16;8.90;;;2.97;;
21999;SDS011;11164;48.818;2.322;2023-11-18T12:53:48;5.95;;;2.63;;
21999;SDS011;11164;48.818;2.322;2023-11-18T12:56:16;6.03;;;2.45;;
21999;SDS011;11164;48.818;2.322;2023-11-18T12:58:44;5.72;;;2.30;;
21999;SDS011;11164;48.818;2.322;2023-11-18T13:01:10;5.22;;;2.40;;
21999;SDS011;11164;48.818;2.322;2023-11-18T13:03:39;10.20;;;5.10;;
21999;SDS011;11164;48.818;2.322;2023-11-18T13:06:07;24.98;;;13.43;;
21999;SDS011;11164;48.818;2.322;2023-11-18T13:08:33;21.38;;;11.32;;
21999;SDS011;11164;48.818;2.322;2023-11-18T13:10:59;6.78;;;2.80;;
21999;SDS011;11164;48.818;2.322;2023-11-18T13:13:29;6.68;;;2.75;;
21999;SDS011;11164;48.818;2.322;2023-11-18T13:15:58;6.05;;;2.83;;
21999;SDS011;11164;48.818;2.322;2023-11-18T13:18:23;6.57;;;2.65;;
21999;SDS011;11164;48.818;2.322;2023-11-18T13:20:58;7.60;;;2.78;;
21999;SDS011;11164;48.818;2.322;2023-11-18T13:23:26;5.25;;;2.25;;
21999;SDS011;11164;48.818;2.322;2023-11-18T13:25:55;5.70;;;2.90;;
21999;SDS011;11164;48.818;2.322;2023-11-18T13:28:24;8.75;;;3.90;;
21999;SDS011;11164;48.818;2.322;2023-11-18T13:30:50;5.75;;;3.25;;
21999;SDS011;11164;48.818;2.322;2023-11-18T13:33:16;7.88;;;3.92;;
21999;SDS011;11164;48.818;2.322;2023-11-18T13:35:42;5.68;;;2.50;;
21999;SDS011;11164;48.818;2.322;2023-11-18T13:38:08;6.28;;;3.58;;
21999;SDS011;11164;48.818;2.322;2023-11-18T13:40:44;6.22;;;4.20;;
21999;SDS011;11164;48.818;2.322;2023-11-18T13:43:10;9.30;;;3.45;;
21999;SDS011;11164;48.818;2.322;2023-11-18T13:45:35;5.78;;;3.22;;
21999;SDS011;11164;48.818;2.322;2023-11-18T13:48:01;7.95;;;3.63;;
21999;SDS011;11164;48.818;2.322;2023-11-18T13:50:27;7.57;;;3.20;;
21999;SDS011;11164;48.818;2.322;2023-11-18T13:52:53;7.65;;;3.08;;
21999;SDS011;11164;48.818;2.322;2023-11-18T13:55:19;8.13;;;3.25;;
21999;SDS011;11164;48.818;2.322;2023-11-18T13:57:52;8.05;;;3.55;;
21999;SDS011;11164;48.818;2.322;2023-11-18T14:00:18;7.00;;;3.47;;
21999;SDS011;11164;48.818;2.322;2023-11-18T14:02:48;8.57;;;3.70;;
21999;SDS011;11164;48.818;2.322;2023-11-18T14:05:17;7.88;;;3.53;;
21999;SDS011;11164;48.818;2.322;2023-11-18T14:07:45;9.32;;;3.20;;
21999;SDS011;11164;48.818;2.322;2023-11-18T14:10:10;9.02;;;3.75;;
21999;SDS011;11164;48.818;2.322;2023-11-18T14:12:38;9.80;;;3.25;;
21999;SDS011;11164;48.818;2.322;2023-11-18T14:15:04;6.45;;;3.00;;
21999;SDS011;11164;48.818;2.322;2023-11-18T14:17:30;8.10;;;4.53;;
21999;SDS011;11164;48.818;2.322;2023-11-18T14:19:56;7.93;;;4.55;;
21999;SDS011;11164;48.818;2.322;2023-11-18T14:22:21;6.90;;;3.53;;
21999;SDS011;11164;48.818;2.322;2023-11-18T14:24:46;8.13;;;4.22;;
21999;SDS011;11164;48.818;2.322;2023-11-18T14:27:12;6.82;;;4.05;;
21999;SDS011;11164;48.818;2.322;2023-11-18T14:29:38;7.50;;;4.72;;
21999;SDS011;11164;48.818;2.322;2023-11-18T14:32:04;8.65;;;4.70;;
21999;SDS011;11164;48.818;2.322;2023-11-18T14:34:31;5.85;;;3.42;;
21999;SDS011;11164;48.818;2.322;2023-11-18T14:36:56;6.35;;;4.00;;
21999;SDS011;11164;48.818;2.322;2023-11-18T14:39:21;7.25;;;3.63;;
21999;SDS011;11164;48.818;2.322;2023-11-18T14:41:47;7.38;;;3.45;;
21999;SDS011;11164;48.818;2.322;2023-11-18T14:44:13;6.55;;;3.40;;
21999;SDS011;11164;48.818;2.322;2023-11-18T14:46:38;9.38;;;4.10;;
21999;SDS011;11164;48.818;2.322;2023-11-18T14:49:04;5.20;;;3.45;;
21999;SDS011;11164;48.818;2.322;2023-11-18T14:51:32;8.43;;;3.63;;
21999;SDS011;11164;48.818;2.322;2023-11-18T14:53:58;7.13;;;3.78;;
21999;SDS011;11164;48.818;2.322;2023-11-18T14:56:23;8.20;;;4.20;;
21999;SDS011;11164;48.818;2.322;2023-11-18T14:58:48;7.75;;;4.03;;
21999;SDS011;11164;48.818;2.322;2023-11-18T15:01:17;5.68;;;3.63;;
21999;SDS011;11164;48.818;2.322;2023-11-18T15:03:43;6.93;;;3.80;;
21999;SDS011;11164;48.818;2.322;2023-11-18T15:06:10;6.50;;;3.35;;
21999;SDS011;11164;48.818;2.322;2023-11-18T15:08:37;8.32;;;3.97;;
21999;SDS011;11164;48.818;2.322;2023-11-18T15:11:04;6.15;;;3.70;;
21999;SDS011;11164;48.818;2.322;2023-11-18T15:13:31;9.88;;;3.53;;
21999;SDS011;11164;48.818;2.322;2023-11-18T15:15:57;9.95;;;4.60;;
21999;SDS011;11164;48.818;2.322;2023-11-18T15:18:23;7.63;;;3.50;;
21999;SDS011;11164;48.818;2.322;2023-11-18T15:20:49;7.70;;;4.28;;
21999;SDS011;11164;48.818;2.322;2023-11-18T15:23:15;6.20;;;3.38;;